Time;durP1;ratioP1;P1;durP2;ratioP2;P2;SDS_P1;SDS_P2;PMS_P1;PMS_P2;Temp;Humidity;BMP_temperature;BMP_pressure;BME280_temperature;BME280_humidity;BME280_pressure;Samples;Min_cycle;Max_cycle;Signal;HPM_P1;HPM_P2
2022/01/30 00:01:45;;;;;;;34.67;6.70;;;5.50;99.90;;;;;;4992195;28;20021;-74
2022/01/30 00:04:11;;;;;;;29.30;6.32;;;5.40;99.90;;;;;;4992540;28;20032;-74
2022/01/30 00:06:37;;;;;;;25.52;4.78;;;5.30;99.90;;;;;;5025755;28;20087;-74
2022/01/30 00:09:06;;;;;;;30.30;5.50;;;5.30;99.90;;;;;;5008735;28;20323;-73
2022/01/30 00:11:35;;;;;;;35.67;6.22;;;5.20;99.90;;;;;;5024060;28;20071;-73
2022/01/30 00:14:04;;;;;;;31.05;5.38;;;5.30;99.90;;;;;;5008581;28;20413;-73
2022/01/30 00:16:33;;;;;;;28.98;5.30;;;5.30;99.90;;;;;;5009067;28;20037;-73
2022/01/30 00:19:08;;;;;;;35.58;5.72;;;5.20;99.90;;;;;;5009170;28;20209;-74
2022/01/30 00:21:42;;;;;;;19.17;3.55;;;5.20;99.90;;;;;;5026095;28;20313;-73
2022/01/30 00:24:13;;;;;;;23.00;4.15;;;5.30;99.90;;;;;;4994716;28;20029;-74
2022/01/30 00:26:40;;;;;;;28.30;5.35;;;5.40;99.90;;;;;;5006403;28;20030;-73
2022/01/30 00:29:07;;;;;;;26.20;5.00;;;5.40;99.90;;;;;;5025977;28;20022;-72
2022/01/30 00:31:34;;;;;;;26.17;5.13;;;5.30;99.90;;;;;;4991875;28;20033;-73
2022/01/30 00:34:00;;;;;;;30.33;5.57;;;5.20;99.90;;;;;;5008285;28;20289;-73
2022/01/30 00:36:26;;;;;;;28.83;4.82;;;5.00;99.90;;;;;;5024836;28;20017;-73
2022/01/30 00:38:52;;;;;;;20.67;3.92;;;5.00;99.90;;;;;;5007961;28;20037;-73
2022/01/30 00:41:18;;;;;;;18.30;3.50;;;5.20;99.90;;;;;;5007796;28;20216;-73
2022/01/30 00:43:44;;;;;;;22.98;3.00;;;5.50;99.90;;;;;;5024241;28;20025;-73
2022/01/30 00:46:09;;;;;;;22.90;3.78;;;5.80;99.90;;;;;;5007929;28;20022;-73
2022/01/30 00:48:35;;;;;;;14.90;3.85;;;5.90;99.90;;;;;;5007807;28;20079;-73
2022/01/30 00:51:02;;;;;;;22.10;4.20;;;5.90;99.90;;;;;;4991736;28;20018;-75
2022/01/30 00:53:27;;;;;;;27.83;4.57;;;5.60;99.90;;;;;;4991668;28;20042;-74
2022/01/30 00:55:53;;;;;;;30.08;5.30;;;5.40;99.90;;;;;;4991255;28;20037;-72
2022/01/30 00:58:19;;;;;;;25.95;4.60;;;5.30;99.90;;;;;;5025342;28;20021;-73
2022/01/30 01:00:44;;;;;;;26.65;5.30;;;5.20;99.90;;;;;;5007882;28;20028;-73
2022/01/30 01:03:10;;;;;;;29.67;4.72;;;5.10;99.90;;;;;;5007634;28;20022;-74
2022/01/30 01:05:37;;;;;;;28.33;4.90;;;5.00;99.90;;;;;;5025024;28;20025;-73
2022/01/30 01:10:52;;;;;;;26.73;4.70;;;4.70;99.90;;;;;;5008507;28;20018;-75
2022/01/30 01:24:21;;;;;;;24.67;4.82;;;4.40;99.90;;;;;;4983123;28;20026;-75
2022/01/30 01:26:46;;;;;;;29.90;6.07;;;4.40;99.90;;;;;;5006854;28;20344;-73
2022/01/30 01:29:12;;;;;;;24.02;5.32;;;4.30;99.90;;;;;;5007295;28;20018;-72
2022/01/30 01:31:38;;;;;;;20.90;4.88;;;4.30;99.90;;;;;;4990801;28;20030;-73
2022/01/30 01:36:49;;;;;;;27.35;4.40;;;4.10;99.90;;;;;;5009952;28;20097;-73
2022/01/30 01:39:14;;;;;;;21.85;6.07;;;4.00;99.90;;;;;;5024316;28;20046;-75
2022/01/30 01:41:40;;;;;;;25.88;4.97;;;3.90;99.90;;;;;;5007172;28;20029;-73
2022/01/30 01:44:15;;;;;;;25.40;4.60;;;3.90;99.90;;;;;;5006400;28;20034;-74
2022/01/30 01:46:42;;;;;;;22.10;4.57;;;4.00;99.90;;;;;;5024376;28;20025;-75
2022/01/30 01:49:10;;;;;;;30.38;5.00;;;4.00;99.90;;;;;;5024519;28;20013;-74
2022/01/30 01:51:36;;;;;;;24.02;4.40;;;4.00;99.90;;;;;;5006972;28;20205;-73
2022/01/30 01:54:02;;;;;;;26.42;5.00;;;4.00;99.90;;;;;;4974565;28;20101;-73
2022/01/30 01:56:28;;;;;;;22.42;4.30;;;4.00;99.90;;;;;;4994636;28;20238;-72
2022/01/30 01:58:54;;;;;;;26.80;4.80;;;4.10;99.90;;;;;;4987247;28;20030;-73
2022/01/30 02:01:20;;;;;;;23.45;4.60;;;4.20;99.90;;;;;;4987083;28;20022;-72
2022/01/30 02:03:47;;;;;;;30.63;5.90;;;4.30;99.90;;;;;;5004559;28;20302;-73
2022/01/30 02:06:18;;;;;;;21.60;4.78;;;4.20;99.90;;;;;;4987390;28;20022;-72
2022/01/30 02:08:50;;;;;;;17.52;3.67;;;4.10;99.90;;;;;;4987844;28;20023;-73
2022/01/30 02:11:29;;;;;;;28.45;5.40;;;3.90;99.90;;;;;;4987909;28;20033;-72
2022/01/30 02:14:27;;;;;;;27.25;4.72;;;3.90;99.90;;;;;;5003722;28;20026;-72
2022/01/30 02:27:55;;;;;;;28.92;4.93;;;3.70;99.90;;;;;;5001995;28;20022;-72
2022/01/30 02:30:21;;;;;;;28.60;5.20;;;3.60;99.90;;;;;;4998720;28;20022;-74
2022/01/30 02:32:48;;;;;;;29.45;4.55;;;3.60;99.90;;;;;;4982427;28;20053;-73
2022/01/30 02:35:14;;;;;;;22.65;6.10;;;3.60;99.90;;;;;;5011123;28;20029;-72
2022/01/30 02:37:40;;;;;;;29.77;5.55;;;3.60;99.90;;;;;;4991330;28;20260;-73
2022/01/30 02:40:07;;;;;;;25.48;4.63;;;3.60;99.90;;;;;;5007649;28;20030;-72
2022/01/30 02:42:36;;;;;;;23.25;4.72;;;3.40;99.90;;;;;;4990926;28;20019;-73
2022/01/30 02:45:05;;;;;;;25.20;5.82;;;3.40;99.90;;;;;;4990838;28;20014;-73
2022/01/30 02:50:22;;;;;;;32.35;6.00;;;3.30;99.90;;;;;;4993417;28;20029;-71
2022/01/30 02:52:56;;;;;;;28.63;6.05;;;3.20;99.90;;;;;;4960104;28;20103;-73
2022/01/30 02:55:23;;;;;;;26.48;5.45;;;3.20;99.90;;;;;;4979773;28;20395;-73
2022/01/30 02:57:48;;;;;;;33.58;7.07;;;3.10;99.90;;;;;;5027746;28;20042;-73
2022/01/30 03:00:14;;;;;;;27.27;5.55;;;3.00;99.90;;;;;;5009878;28;20022;-73
2022/01/30 03:02:40;;;;;;;23.55;6.05;;;3.00;99.90;;;;;;5027216;28;20212;-72
2022/01/30 03:05:06;;;;;;;30.50;5.45;;;3.10;99.90;;;;;;5027553;28;20018;-74
2022/01/30 03:07:32;;;;;;;31.52;6.03;;;3.10;99.90;;;;;;4993245;28;20100;-73
2022/01/30 03:09:58;;;;;;;19.30;4.68;;;3.00;99.90;;;;;;5009864;28;20029;-72
2022/01/30 03:12:24;;;;;;;25.98;4.80;;;3.00;99.90;;;;;;5008265;28;20033;-72
2022/01/30 03:14:49;;;;;;;25.13;5.70;;;3.00;99.90;;;;;;5026894;28;20025;-73
2022/01/30 03:17:15;;;;;;;24.42;5.28;;;2.90;99.90;;;;;;5027180;28;20244;-73
2022/01/30 03:19:41;;;;;;;22.67;5.13;;;2.80;99.90;;;;;;5009382;28;20033;-73
2022/01/30 03:22:07;;;;;;;27.05;6.32;;;2.80;99.90;;;;;;5009695;28;20049;-73
2022/01/30 03:24:36;;;;;;;28.95;5.43;;;2.80;99.90;;;;;;4993371;28;20060;-72
2022/01/30 03:27:04;;;;;;;19.02;4.57;;;2.70;99.90;;;;;;5009437;28;20072;-74
2022/01/30 03:29:29;;;;;;;23.45;5.13;;;2.70;99.90;;;;;;5009524;28;20018;-72
2022/01/30 03:31:55;;;;;;;27.00;5.03;;;2.60;99.90;;;;;;5009306;28;20100;-72
2022/01/30 03:34:21;;;;;;;24.63;4.50;;;2.70;99.90;;;;;;5026967;28;20091;-72
2022/01/30 03:36:47;;;;;;;15.38;4.78;;;2.60;99.90;;;;;;5027003;28;20316;-74
2022/01/30 03:39:12;;;;;;;29.20;5.13;;;2.60;99.90;;;;;;4992795;28;20347;-73
2022/01/30 03:41:38;;;;;;;22.75;5.47;;;2.70;99.90;;;;;;5025705;28;20049;-74
2022/01/30 03:44:04;;;;;;;26.23;4.80;;;2.70;99.90;;;;;;5026419;28;20089;-73
2022/01/30 03:46:30;;;;;;;27.10;4.47;;;2.60;99.90;;;;;;5008733;28;20299;-74
2022/01/30 03:48:55;;;;;;;31.17;4.93;;;2.50;99.90;;;;;;5025630;28;20029;-73
2022/01/30 03:51:21;;;;;;;22.08;4.50;;;2.50;99.90;;;;;;5009194;28;20033;-74
2022/01/30 03:53:47;;;;;;;24.58;4.88;;;2.50;99.90;;;;;;5026776;28;20022;-72
2022/01/30 03:56:13;;;;;;;23.45;5.18;;;2.50;99.90;;;;;;5026139;28;20116;-73
2022/01/30 03:58:39;;;;;;;21.88;5.15;;;2.50;99.90;;;;;;5009004;28;20058;-72
2022/01/30 04:01:04;;;;;;;25.55;5.45;;;2.50;99.90;;;;;;5008707;28;20104;-72
2022/01/30 04:03:30;;;;;;;26.02;4.57;;;2.40;99.90;;;;;;5008972;28;20021;-73
2022/01/30 04:05:56;;;;;;;23.65;4.80;;;2.30;99.90;;;;;;5008869;28;20018;-73
2022/01/30 04:08:23;;;;;;;29.85;5.10;;;2.30;99.90;;;;;;5008729;28;20136;-73
2022/01/30 04:10:48;;;;;;;24.67;4.57;;;2.40;99.90;;;;;;5008592;28;20044;-72
2022/01/30 04:13:14;;;;;;;23.23;4.88;;;2.40;99.90;;;;;;5024742;28;20045;-73
2022/01/30 04:15:40;;;;;;;20.67;4.90;;;2.40;99.90;;;;;;5025511;28;20033;-70
2022/01/30 04:18:07;;;;;;;24.58;4.35;;;2.30;99.90;;;;;;4976188;28;20026;-72
2022/01/30 04:20:34;;;;;;;25.35;5.43;;;2.20;99.90;;;;;;5025625;28;20018;-73
2022/01/30 04:22:59;;;;;;;17.27;4.75;;;2.30;99.90;;;;;;5026028;28;20248;-71
2022/01/30 04:25:25;;;;;;;21.50;4.72;;;2.20;99.90;;;;;;5008826;28;20077;-71
2022/01/30 04:27:51;;;;;;;23.73;5.25;;;2.10;99.90;;;;;;4992214;28;20021;-72
2022/01/30 04:30:17;;;;;;;21.58;4.60;;;2.10;99.90;;;;;;5008583;28;20022;-72
2022/01/30 04:32:44;;;;;;;31.95;5.93;;;2.00;99.90;;;;;;5025330;28;20092;-72
2022/01/30 04:35:15;;;;;;;31.67;5.32;;;2.00;99.90;;;;;;5008420;28;20321;-73
2022/01/30 04:55:19;;;;;;;28.58;5.43;;;2.00;99.90;;;;;;5010826;28;20033;-72
2022/01/30 04:57:19;;;;;;;27.73;4.75;;;2.10;99.90;;;;;;5011327;28;20092;-72
2022/01/30 05:00:08;;;;;;;14.57;3.88;;;2.00;99.90;;;;;;5020063;28;20098;-71
2022/01/30 05:08:03;;;;;;;30.35;5.50;;;1.90;99.90;;;;;;5016740;28;20022;-72
2022/01/30 05:10:29;;;;;;;21.52;5.63;;;1.80;99.90;;;;;;5008801;28;20212;-72
2022/01/30 05:12:56;;;;;;;22.30;5.00;;;1.90;99.90;;;;;;5024933;28;20030;-71
2022/01/30 05:15:22;;;;;;;17.95;4.97;;;1.90;99.90;;;;;;4989865;28;20108;-71
2022/01/30 05:17:48;;;;;;;29.35;5.07;;;1.80;99.90;;;;;;5007576;28;20053;-71
2022/01/30 05:20:14;;;;;;;24.80;6.40;;;1.80;99.90;;;;;;5024873;28;20064;-71
2022/01/30 05:22:40;;;;;;;27.70;6.55;;;1.90;99.90;;;;;;4975046;28;20021;-73
2022/01/30 05:25:06;;;;;;;20.42;5.03;;;1.90;99.90;;;;;;5007092;28;20018;-71
2022/01/30 05:27:32;;;;;;;22.42;4.82;;;1.80;99.90;;;;;;5024878;28;20036;-73
2022/01/30 05:29:58;;;;;;;21.33;4.82;;;1.80;99.90;;;;;;5006911;28;20022;-72
2022/01/30 05:32:24;;;;;;;21.10;4.80;;;1.70;99.90;;;;;;5024403;28;20052;-71
2022/01/30 05:34:50;;;;;;;25.80;6.18;;;1.70;99.90;;;;;;5024809;28;20297;-73
2022/01/30 05:37:19;;;;;;;27.80;5.55;;;1.70;99.90;;;;;;5024517;28;20256;-73
2022/01/30 05:39:46;;;;;;;19.60;5.07;;;1.80;99.90;;;;;;5007077;28;20364;-74
2022/01/30 05:42:13;;;;;;;29.90;5.40;;;1.80;99.90;;;;;;5007015;28;20241;-72
2022/01/30 05:44:47;;;;;;;20.02;4.72;;;1.70;99.90;;;;;;5006810;28;20100;-73
2022/01/30 05:47:25;;;;;;;30.50;5.25;;;1.70;99.90;;;;;;4999176;28;20028;-73
2022/01/30 05:49:51;;;;;;;21.90;5.13;;;1.70;99.90;;;;;;5023304;28;20028;-73
2022/01/30 05:52:17;;;;;;;22.05;4.47;;;1.80;99.90;;;;;;5006493;28;20029;-71
2022/01/30 05:54:43;;;;;;;19.58;5.60;;;1.90;99.90;;;;;;5006522;28;20026;-71
2022/01/30 05:57:09;;;;;;;24.73;5.85;;;1.80;99.90;;;;;;4973572;28;20054;-73
2022/01/30 05:59:34;;;;;;;26.05;5.45;;;1.80;99.90;;;;;;4987349;28;20026;-73
2022/01/30 06:02:00;;;;;;;22.13;4.97;;;1.70;99.90;;;;;;4990282;28;20022;-73
2022/01/30 06:04:26;;;;;;;30.52;4.63;;;1.70;99.90;;;;;;5023723;28;20089;-71
2022/01/30 06:06:53;;;;;;;26.52;4.57;;;1.80;99.90;;;;;;5024163;28;20301;-72
2022/01/30 06:09:19;;;;;;;19.00;5.60;;;1.80;99.90;;;;;;5006579;28;20328;-74
2022/01/30 06:11:47;;;;;;;18.17;5.13;;;1.80;99.90;;;;;;5006836;28;20030;-72
2022/01/30 06:14:14;;;;;;;18.65;4.78;;;1.70;99.90;;;;;;5006252;28;20025;-73
2022/01/30 06:16:40;;;;;;;24.00;5.55;;;1.70;99.90;;;;;;5022032;28;20059;-74
2022/01/30 06:19:06;;;;;;;20.95;4.57;;;1.70;99.90;;;;;;5006542;28;20021;-72
2022/01/30 06:21:31;;;;;;;21.42;4.63;;;1.60;99.90;;;;;;5006405;28;20029;-72
2022/01/30 06:23:57;;;;;;;21.08;5.25;;;1.60;99.90;;;;;;5006549;28;20043;-71
2022/01/30 06:26:23;;;;;;;25.35;5.70;;;1.60;99.90;;;;;;5006531;28;20022;-71
2022/01/30 06:28:48;;;;;;;27.20;4.95;;;1.70;99.90;;;;;;5006574;28;20220;-75
2022/01/30 06:31:15;;;;;;;27.52;5.45;;;1.80;99.90;;;;;;5006208;28;20022;-72
2022/01/30 06:33:41;;;;;;;23.77;6.20;;;1.80;99.90;;;;;;5005790;28;20068;-73
2022/01/30 06:36:07;;;;;;;18.92;4.60;;;1.80;99.90;;;;;;5006356;28;20017;-75
2022/01/30 06:38:32;;;;;;;18.75;5.28;;;1.80;99.90;;;;;;5005826;28;20029;-74
2022/01/30 06:40:58;;;;;;;32.35;7.45;;;1.70;99.90;;;;;;5004100;28;20085;-74
2022/01/30 06:43:24;;;;;;;21.95;5.65;;;1.60;99.90;;;;;;5003799;28;20049;-74
2022/01/30 06:45:50;;;;;;;36.53;5.97;;;1.60;99.90;;;;;;5002723;28;20025;-75
2022/01/30 06:48:18;;;;;;;21.48;5.07;;;1.70;99.90;;;;;;5002979;28;20026;-72
2022/01/30 06:50:44;;;;;;;31.50;6.85;;;1.70;99.90;;;;;;5002887;28;20023;-72
2022/01/30 06:53:09;;;;;;;17.75;5.30;;;1.50;99.90;;;;;;5003677;28;20026;-73
2022/01/30 06:55:42;;;;;;;22.98;6.78;;;1.40;99.90;;;;;;4986875;28;20085;-72
2022/01/30 06:58:09;;;;;;;26.60;6.22;;;1.40;99.90;;;;;;4972259;28;20027;-71
2022/01/30 07:00:35;;;;;;;19.40;5.28;;;1.30;99.90;;;;;;4970614;28;20069;-73
2022/01/30 07:03:02;;;;;;;28.00;5.78;;;1.40;99.90;;;;;;4986721;28;20053;-71
2022/01/30 07:05:27;;;;;;;20.25;5.07;;;1.40;99.90;;;;;;4986966;28;20025;-74
2022/01/30 07:07:53;;;;;;;20.52;6.13;;;1.40;99.90;;;;;;5003946;28;20064;-71
2022/01/30 07:10:20;;;;;;;27.45;6.25;;;1.40;99.90;;;;;;4986540;28;20057;-75
2022/01/30 07:12:46;;;;;;;39.75;6.00;;;1.50;99.90;;;;;;5003898;28;20332;-73
2022/01/30 07:15:12;;;;;;;27.75;5.45;;;1.40;99.90;;;;;;4982563;28;20018;-74
2022/01/30 07:17:38;;;;;;;18.83;4.55;;;1.40;99.90;;;;;;5002121;28;20216;-74
2022/01/30 07:20:05;;;;;;;22.90;4.38;;;1.30;99.90;;;;;;4989825;28;20022;-73
2022/01/30 07:22:30;;;;;;;17.42;4.93;;;1.40;99.90;;;;;;4990168;28;20027;-73
2022/01/30 07:24:56;;;;;;;33.60;5.18;;;1.50;99.90;;;;;;4990178;28;20082;-73
2022/01/30 07:27:22;;;;;;;22.20;5.28;;;1.40;99.90;;;;;;5008640;28;20072;-73
2022/01/30 07:29:48;;;;;;;27.92;5.38;;;1.30;99.90;;;;;;5003322;28;20022;-75
2022/01/30 07:32:13;;;;;;;28.48;5.35;;;1.30;99.90;;;;;;5002033;28;20034;-76
2022/01/30 07:34:39;;;;;;;28.88;6.32;;;1.30;99.90;;;;;;4984200;28;20061;-73
2022/01/30 07:37:05;;;;;;;23.92;5.20;;;1.30;99.90;;;;;;4998142;28;20022;-74
2022/01/30 07:39:32;;;;;;;25.40;5.90;;;1.30;99.90;;;;;;5010706;28;20010;-76
2022/01/30 07:41:58;;;;;;;22.95;5.50;;;1.30;99.90;;;;;;4989724;28;20026;-75
2022/01/30 07:44:24;;;;;;;25.20;5.85;;;1.30;99.90;;;;;;4989345;28;20186;-74
2022/01/30 07:46:50;;;;;;;33.45;6.28;;;1.30;99.90;;;;;;5006974;28;20037;-74
2022/01/30 07:49:16;;;;;;;20.40;6.18;;;1.30;99.90;;;;;;5005968;28;20018;-74
2022/01/30 07:51:41;;;;;;;17.38;5.50;;;1.30;99.90;;;;;;5006868;28;20031;-74
2022/01/30 07:54:07;;;;;;;21.20;5.10;;;1.40;99.90;;;;;;4989372;28;20023;-76
2022/01/30 07:56:33;;;;;;;31.10;6.57;;;1.30;99.90;;;;;;5000996;28;20436;-75
2022/01/30 07:58:59;;;;;;;25.15;7.70;;;1.30;99.90;;;;;;4992492;28;20191;-73
2022/01/30 08:01:25;;;;;;;29.48;6.45;;;1.20;99.90;;;;;;5026301;28;20225;-74
2022/01/30 08:03:50;;;;;;;30.55;6.93;;;1.20;99.90;;;;;;5021699;28;20049;-72
2022/01/30 08:06:16;;;;;;;18.38;5.30;;;1.30;99.90;;;;;;4989625;28;20033;-76
2022/01/30 08:08:42;;;;;;;26.00;5.75;;;1.30;99.90;;;;;;4989254;28;20019;-76
2022/01/30 08:11:09;;;;;;;28.83;5.88;;;1.40;99.90;;;;;;5005159;28;20213;-74
2022/01/30 08:13:34;;;;;;;20.60;5.57;;;1.30;99.90;;;;;;4989506;28;20018;-76
2022/01/30 08:16:00;;;;;;;32.00;6.00;;;1.30;99.90;;;;;;4988697;28;20198;-74
2022/01/30 08:18:26;;;;;;;31.20;5.90;;;1.30;99.90;;;;;;5005236;28;20022;-74
2022/01/30 08:20:54;;;;;;;27.75;6.13;;;1.30;99.90;;;;;;5004865;28;20197;-74
2022/01/30 08:23:20;;;;;;;24.77;6.57;;;1.30;99.90;;;;;;4989179;28;20080;-74
2022/01/30 08:25:46;;;;;;;27.05;7.20;;;1.40;99.90;;;;;;5006237;28;20030;-74
2022/01/30 08:28:11;;;;;;;17.63;6.07;;;1.40;99.90;;;;;;5004751;28;20033;-73
2022/01/30 08:30:37;;;;;;;28.45;5.82;;;1.40;99.90;;;;;;5004948;28;20034;-74
2022/01/30 08:33:03;;;;;;;27.58;6.07;;;1.50;99.90;;;;;;4988274;28;20030;-75
2022/01/30 08:35:29;;;;;;;24.58;6.80;;;1.40;99.90;;;;;;5006375;28;20022;-75
2022/01/30 08:37:56;;;;;;;24.42;6.65;;;1.40;99.90;;;;;;4988723;28;20324;-75
2022/01/30 08:40:23;;;;;;;21.65;5.78;;;1.40;99.90;;;;;;5005473;28;20217;-74
2022/01/30 08:42:49;;;;;;;25.83;7.13;;;1.50;99.90;;;;;;5004626;28;20381;-75
2022/01/30 08:45:17;;;;;;;27.55;6.70;;;1.60;99.90;;;;;;5005606;28;20086;-74
2022/01/30 08:47:44;;;;;;;19.42;6.00;;;1.70;99.90;;;;;;5006031;28;20353;-73
2022/01/30 08:50:12;;;;;;;28.23;6.53;;;1.70;99.90;;;;;;4972892;28;20026;-75
2022/01/30 08:52:38;;;;;;;26.77;7.50;;;1.60;99.90;;;;;;5004932;28;20206;-75
2022/01/30 08:55:07;;;;;;;22.63;7.53;;;1.60;99.90;;;;;;4988589;28;20065;-75
2022/01/30 08:57:33;;;;;;;30.08;7.18;;;1.70;99.90;;;;;;4972265;28;20038;-75
2022/01/30 08:59:59;;;;;;;33.33;8.45;;;1.70;99.90;;;;;;4988225;28;20041;-73
2022/01/30 09:02:26;;;;;;;25.35;7.10;;;1.80;99.90;;;;;;5005002;28;20093;-73
2022/01/30 09:04:51;;;;;;;30.35;7.22;;;1.80;99.90;;;;;;4988109;28;20026;-74
2022/01/30 09:07:19;;;;;;;28.45;7.13;;;1.90;99.90;;;;;;5005613;28;20018;-76
2022/01/30 09:09:45;;;;;;;23.10;6.85;;;2.00;99.90;;;;;;5004370;28;20312;-75
2022/01/30 09:12:10;;;;;;;26.52;7.07;;;2.10;99.90;;;;;;5004241;28;20206;-75
2022/01/30 09:14:39;;;;;;;24.10;7.40;;;2.10;99.90;;;;;;5004886;28;20093;-73
2022/01/30 09:17:12;;;;;;;28.02;6.55;;;2.10;99.90;;;;;;5004365;28;20026;-76
2022/01/30 09:19:40;;;;;;;24.85;6.38;;;2.10;99.90;;;;;;5002201;28;20022;-76
2022/01/30 09:22:07;;;;;;;24.48;7.35;;;2.10;99.90;;;;;;4987731;28;20068;-73
2022/01/30 09:24:32;;;;;;;25.48;6.78;;;2.10;99.90;;;;;;5004260;28;20026;-75
2022/01/30 09:26:58;;;;;;;27.25;7.50;;;2.20;99.90;;;;;;5004971;28;20085;-77
2022/01/30 09:29:23;;;;;;;27.15;6.68;;;2.30;99.90;;;;;;4988223;28;20161;-74
2022/01/30 09:31:49;;;;;;;24.98;6.93;;;2.40;99.90;;;;;;4987399;28;20100;-74
2022/01/30 09:34:15;;;;;;;38.10;7.25;;;2.50;99.90;;;;;;4987446;28;20026;-74
2022/01/30 09:36:41;;;;;;;25.35;6.95;;;2.40;99.90;;;;;;4987304;28;20214;-73
2022/01/30 09:39:06;;;;;;;29.52;8.00;;;2.50;99.90;;;;;;5003407;28;20360;-74
2022/01/30 09:41:35;;;;;;;19.85;7.50;;;2.50;99.90;;;;;;5003568;28;20105;-76
2022/01/30 09:44:01;;;;;;;26.85;7.30;;;2.60;99.90;;;;;;4987130;28;20026;-75
2022/01/30 09:46:32;;;;;;;34.70;6.72;;;2.80;99.90;;;;;;5003003;28;20082;-74
2022/01/30 09:48:59;;;;;;;25.38;6.80;;;2.80;99.90;;;;;;4955914;28;20209;-75
2022/01/30 09:51:25;;;;;;;19.05;6.63;;;2.90;99.90;;;;;;4971416;28;20030;-75
2022/01/30 09:53:50;;;;;;;31.58;6.70;;;3.10;99.90;;;;;;4971504;28;20062;-76
2022/01/30 09:56:18;;;;;;;27.80;6.97;;;3.10;99.90;;;;;;5012830;28;20053;-74
2022/01/30 09:58:45;;;;;;;25.52;7.35;;;3.20;99.90;;;;;;5020729;28;20045;-73
2022/01/30 10:01:11;;;;;;;21.35;6.97;;;3.20;99.90;;;;;;5036531;28;20025;-73
2022/01/30 10:03:37;;;;;;;23.85;7.00;;;3.20;99.90;;;;;;5017430;28;20040;-75
2022/01/30 10:06:18;;;;;;;27.08;7.20;;;3.30;99.90;;;;;;5014680;28;20022;-73
2022/01/30 10:08:46;;;;;;;24.60;6.77;;;3.30;99.90;;;;;;4978242;28;20033;-75
2022/01/30 10:11:28;;;;;;;24.52;6.80;;;3.40;99.90;;;;;;4990661;28;20091;-73
2022/01/30 10:14:11;;;;;;;24.63;5.32;;;3.60;99.90;;;;;;5024138;28;20049;-74
2022/01/30 10:16:47;;;;;;;22.02;6.13;;;3.70;99.90;;;;;;4974439;28;20034;-73
2022/01/30 10:19:17;;;;;;;25.10;6.28;;;3.70;99.90;;;;;;4972819;28;20032;-75
2022/01/30 10:21:45;;;;;;;26.98;6.55;;;3.90;99.90;;;;;;5006263;28;20108;-75
2022/01/30 10:24:35;;;;;;;21.60;6.28;;;4.00;99.90;;;;;;4974409;28;20033;-74
2022/01/30 10:27:19;;;;;;;19.95;6.25;;;4.00;99.90;;;;;;5015863;28;20041;-73
2022/01/30 10:29:45;;;;;;;23.27;7.53;;;4.10;99.90;;;;;;5006677;28;20026;-75
2022/01/30 10:32:11;;;;;;;33.67;8.20;;;4.20;99.90;;;;;;4989561;28;20033;-74
2022/01/30 10:34:38;;;;;;;28.13;7.07;;;4.30;99.90;;;;;;4990102;28;20038;-74
2022/01/30 10:37:22;;;;;;;21.10;6.63;;;4.40;99.90;;;;;;5006409;28;20014;-75
2022/01/30 10:40:13;;;;;;;26.70;7.47;;;4.40;99.90;;;;;;4974578;28;20028;-74
2022/01/30 10:42:51;;;;;;;17.05;5.90;;;4.50;99.90;;;;;;5007390;28;20449;-73
2022/01/30 10:45:33;;;;;;;27.15;6.85;;;4.60;99.90;;;;;;5023168;28;20028;-74
2022/01/30 10:48:17;;;;;;;23.40;6.43;;;4.80;99.90;;;;;;5023506;28;20041;-72
2022/01/30 10:50:47;;;;;;;24.75;6.75;;;4.90;99.90;;;;;;5006904;28;20313;-74
2022/01/30 10:53:22;;;;;;;33.08;7.85;;;5.10;99.90;;;;;;5026317;28;20049;-75
2022/01/30 10:55:49;;;;;;;21.88;6.35;;;5.20;99.90;;;;;;5010217;28;20252;-75
2022/01/30 10:58:18;;;;;;;35.67;7.25;;;5.20;99.90;;;;;;5027288;28;20064;-74
2022/01/30 11:00:53;;;;;;;32.80;6.97;;;5.20;99.90;;;;;;5027741;28;20085;-74
2022/01/30 11:03:45;;;;;;;25.63;6.38;;;5.20;99.90;;;;;;5027216;28;20026;-73
2022/01/30 11:06:13;;;;;;;21.17;7.13;;;5.30;99.90;;;;;;4997216;28;20057;-72
2022/01/30 11:08:43;;;;;;;28.85;6.93;;;5.50;99.90;;;;;;5009812;28;20068;-75
2022/01/30 11:11:23;;;;;;;33.83;6.05;;;5.50;99.90;;;;;;5027056;28;20022;-74
2022/01/30 11:14:15;;;;;;;24.55;6.43;;;5.50;99.90;;;;;;5026079;28;20022;-75
2022/01/30 11:19:26;;;;;;;30.40;6.43;;;5.70;99.90;;;;;;5010698;28;20025;-73
2022/01/30 11:21:55;;;;;;;22.75;6.90;;;5.80;99.90;;;;;;5027054;28;20320;-74
2022/01/30 11:24:24;;;;;;;18.23;6.85;;;5.90;99.90;;;;;;5009923;28;20032;-73
2022/01/30 11:26:50;;;;;;;30.85;7.38;;;5.90;99.90;;;;;;5009686;28;20026;-74
2022/01/30 11:29:17;;;;;;;26.40;7.38;;;5.90;99.90;;;;;;5027108;28;20048;-74
2022/01/30 11:31:43;;;;;;;22.20;6.43;;;6.00;99.90;;;;;;4992936;28;20144;-73
2022/01/30 11:34:09;;;;;;;22.90;5.95;;;6.00;99.90;;;;;;5009446;28;20248;-76
2022/01/30 11:36:39;;;;;;;22.98;6.05;;;6.00;99.90;;;;;;5025795;28;20230;-74
2022/01/30 11:39:07;;;;;;;23.50;6.20;;;6.10;99.90;;;;;;5001400;28;20015;-74
2022/01/30 11:41:34;;;;;;;22.40;6.25;;;6.20;99.90;;;;;;4987227;28;20106;-74
2022/01/30 11:44:22;;;;;;;26.23;6.13;;;6.40;99.90;;;;;;5006816;28;20026;-73
2022/01/30 11:47:15;;;;;;;21.48;6.05;;;6.50;99.90;;;;;;4993960;28;20014;-75
2022/01/30 11:50:04;;;;;;;25.42;6.72;;;6.50;99.90;;;;;;5006126;28;20018;-73
2022/01/30 11:52:51;;;;;;;20.63;4.18;;;6.60;99.90;;;;;;5005385;28;20034;-75
2022/01/30 11:55:51;;;;;;;26.52;3.25;;;6.90;99.90;;;;;;4989364;28;20046;-74
2022/01/30 11:58:42;;;;;;;20.63;3.13;;;7.10;99.90;;;;;;5005808;28;20037;-74
2022/01/30 12:01:37;;;;;;;19.17;2.58;;;7.20;99.90;;;;;;5005325;28;20058;-75
2022/01/30 12:04:14;;;;;;;24.60;3.88;;;7.30;99.90;;;;;;5005095;28;20093;-75
2022/01/30 12:06:43;;;;;;;14.45;2.40;;;7.30;99.90;;;;;;4989319;28;20049;-72
2022/01/30 12:09:25;;;;;;;15.45;2.22;;;7.40;99.90;;;;;;4989275;28;20022;-74
2022/01/30 12:11:54;;;;;;;20.88;2.67;;;7.50;99.90;;;;;;4989743;28;20034;-74
2022/01/30 12:14:44;;;;;;;19.33;2.35;;;7.50;99.90;;;;;;4988498;28;20194;-75
2022/01/30 12:17:09;;;;;;;21.80;2.63;;;7.60;99.90;;;;;;4992667;28;20022;-76
2022/01/30 12:20:05;;;;;;;16.70;2.55;;;7.60;99.70;;;;;;5006249;28;20014;-75
2022/01/30 12:22:39;;;;;;;14.90;2.22;;;7.60;99.90;;;;;;4989166;28;20030;-76
2022/01/30 12:25:25;;;;;;;11.10;1.90;;;7.70;99.60;;;;;;4988972;28;20031;-74
2022/01/30 12:27:54;;;;;;;21.48;2.40;;;7.70;98.80;;;;;;5001086;28;20015;-73
2022/01/30 12:30:42;;;;;;;20.67;2.50;;;7.80;98.80;;;;;;5001212;28;20033;-73
2022/01/30 12:33:37;;;;;;;15.73;2.10;;;7.90;98.40;;;;;;4998702;28;20026;-76
2022/01/30 12:36:10;;;;;;;17.60;1.98;;;7.90;98.30;;;;;;5000404;28;20014;-74
2022/01/30 12:38:36;;;;;;;10.98;2.15;;;7.90;98.30;;;;;;4991493;28;20293;-75
2022/01/30 12:41:20;;;;;;;26.33;2.83;;;8.00;98.20;;;;;;5025659;28;20026;-76
2022/01/30 12:43:51;;;;;;;17.17;1.92;;;8.00;98.30;;;;;;5008355;28;20021;-75
2022/01/30 12:46:17;;;;;;;22.67;3.20;;;8.10;97.80;;;;;;5007625;28;20096;-74
2022/01/30 12:48:57;;;;;;;24.25;3.33;;;8.10;97.90;;;;;;5008085;28;20025;-74
2022/01/30 12:51:23;;;;;;;19.88;2.53;;;8.10;97.50;;;;;;5008025;28;20034;-73
2022/01/30 12:53:49;;;;;;;19.48;2.60;;;8.10;97.30;;;;;;5007664;28;20277;-75
2022/01/30 12:56:14;;;;;;;15.25;2.38;;;8.10;97.20;;;;;;5007697;28;20045;-72
2022/01/30 12:58:47;;;;;;;24.20;2.50;;;8.10;97.40;;;;;;5007818;28;20022;-77
2022/01/30 13:01:14;;;;;;;20.13;2.95;;;8.10;97.40;;;;;;5008732;28;20049;-73
2022/01/30 13:03:41;;;;;;;21.17;3.15;;;8.10;97.40;;;;;;5008882;28;20018;-73
2022/01/30 13:06:07;;;;;;;17.25;2.47;;;8.10;97.60;;;;;;5023792;28;20056;-73
2022/01/30 13:08:51;;;;;;;15.27;2.45;;;8.10;97.50;;;;;;5007695;28;20034;-74
2022/01/30 13:11:21;;;;;;;21.25;2.38;;;8.10;97.00;;;;;;5024696;28;20022;-77
2022/01/30 13:14:00;;;;;;;24.60;3.17;;;8.20;96.90;;;;;;5007823;28;20056;-74
2022/01/30 13:16:30;;;;;;;25.02;2.70;;;8.20;97.10;;;;;;5006536;28;20309;-74
2022/01/30 13:18:56;;;;;;;26.35;2.92;;;8.20;97.40;;;;;;5008029;28;20018;-73
2022/01/30 13:21:24;;;;;;;17.63;2.65;;;8.20;96.80;;;;;;5021905;28;20026;-74
2022/01/30 13:23:50;;;;;;;18.42;2.42;;;8.20;97.00;;;;;;5007444;28;20026;-75
2022/01/30 13:26:38;;;;;;;22.20;3.30;;;8.30;96.90;;;;;;5007513;28;20077;-75
2022/01/30 13:29:08;;;;;;;14.95;2.40;;;8.30;96.90;;;;;;5007573;28;20022;-75
2022/01/30 13:31:37;;;;;;;13.27;2.38;;;8.30;96.80;;;;;;5023209;28;20041;-75
2022/01/30 13:34:31;;;;;;;18.08;2.63;;;8.30;96.60;;;;;;5023363;28;20026;-75
2022/01/30 13:37:04;;;;;;;14.25;2.33;;;8.40;96.60;;;;;;5006767;28;20045;-73
2022/01/30 13:39:36;;;;;;;12.63;2.38;;;8.40;96.50;;;;;;4995539;28;20313;-74
2022/01/30 13:48:22;;;;;;;14.13;2.47;;;8.40;96.70;;;;;;4991919;28;20105;-74
2022/01/30 13:50:53;;;;;;;14.77;2.55;;;8.50;96.70;;;;;;5009711;28;20017;-74
2022/01/30 13:53:25;;;;;;;19.48;3.25;;;8.40;96.80;;;;;;4991225;28;20036;-74
2022/01/30 13:55:57;;;;;;;16.33;2.42;;;8.50;96.90;;;;;;5022791;28;20056;-74
2022/01/30 13:58:26;;;;;;;12.25;2.25;;;8.50;97.00;;;;;;5006989;28;20343;-73
2022/01/30 14:00:52;;;;;;;17.67;2.38;;;8.50;97.30;;;;;;5006723;28;20308;-75